Time;durP1;ratioP1;P1;durP2;ratioP2;P2;SDS_P1;SDS_P2;PMS_P1;PMS_P2;Temp;Humidity;BMP_temperature;BMP_pressure;BME280_temperature;BME280_humidity;BME280_pressure;Samples;Min_cycle;Max_cycle;Signal;HPM_P1;HPM_P2
2023/01/07 00:01:43;;;;;;;3.47;3.17;;;8.10;99.90;;;-141.84;82.94;19033.50;5052712;28;20211;-65
2023/01/07 00:04:15;;;;;;;3.43;3.13;;;8.10;99.90;;;-141.84;83.37;19037.56;5052506;28;20197;-70
2023/01/07 00:06:46;;;;;;;4.27;3.10;;;8.10;99.90;;;-141.84;82.79;19049.75;5051116;28;20232;-70
2023/01/07 00:09:16;;;;;;;3.77;3.47;;;8.10;99.90;;;-141.84;83.17;19039.59;5051093;28;20225;-69
2023/01/07 00:11:45;;;;;;;3.70;3.30;;;8.10;99.90;;;-141.84;83.71;19025.38;5050736;28;20235;-70
2023/01/07 00:14:15;;;;;;;3.80;3.50;;;8.00;99.90;;;-141.84;84.04;19037.56;5051556;28;20229;-70
2023/01/07 00:16:43;;;;;;;4.20;3.80;;;7.90;99.90;;;-141.84;83.97;19019.28;5041080;28;20202;-71
2023/01/07 00:19:16;;;;;;;3.50;3.20;;;7.90;99.90;;;-141.84;84.03;19021.31;5068591;28;20258;-71
2023/01/07 00:21:44;;;;;;;3.97;3.67;;;7.90;99.90;;;-141.84;83.96;19023.34;5071749;28;20227;-71
2023/01/07 00:24:12;;;;;;;4.43;4.03;;;7.90;99.90;;;-141.84;83.77;18986.75;5069947;28;20232;-71
2023/01/07 00:26:41;;;;;;;6.80;4.80;;;7.80;99.90;;;-141.84;84.16;19027.41;5071149;28;20231;-71
2023/01/07 00:29:09;;;;;;;5.33;4.67;;;7.80;99.90;;;-141.84;83.93;19041.63;5071428;28;20235;-70
2023/01/07 00:31:41;;;;;;;5.37;4.87;;;7.80;99.90;;;-141.84;83.74;19019.28;5071947;28;20205;-70
2023/01/07 00:34:10;;;;;;;4.87;4.37;;;7.90;99.90;;;-141.84;83.75;19066.00;5071571;28;20227;-70
2023/01/07 00:36:42;;;;;;;5.73;3.80;;;7.90;99.90;;;-141.84;83.06;19072.09;5069509;28;20239;-71
2023/01/07 00:39:15;;;;;;;4.07;3.67;;;8.00;99.90;;;-141.84;82.18;19088.34;5051009;28;20230;-70
2023/01/07 00:42:53;;;;;;;3.80;3.47;;;8.10;99.90;;;-141.84;81.61;19074.13;5051258;28;20244;-70
2023/01/07 00:44:36;;;;;;;3.33;3.03;;;8.10;99.90;;;-141.84;81.88;19070.06;5050840;28;20236;-70
2023/01/07 00:47:05;;;;;;;4.93;3.67;;;8.20;99.90;;;-141.84;82.60;19070.06;5050957;28;20306;-70
2023/01/07 00:49:33;;;;;;;5.20;3.53;;;8.10;99.90;;;-141.84;82.62;19102.56;5047038;28;20752;-70
2023/01/07 00:52:03;;;;;;;4.13;3.67;;;8.10;99.90;;;-141.84;81.57;19074.13;5030843;28;20233;-70
2023/01/07 00:54:31;;;;;;;3.40;3.10;;;8.10;99.90;;;-141.84;82.25;19047.72;5034716;28;20225;-71
2023/01/07 00:56:59;;;;;;;3.47;3.17;;;8.00;99.90;;;-141.84;83.48;19043.66;5051168;28;20227;-70
2023/01/07 00:59:27;;;;;;;5.03;3.50;;;7.90;99.90;;;-141.84;84.00;19021.31;5050799;28;20233;-69
2023/01/07 01:01:55;;;;;;;3.80;3.50;;;7.80;99.90;;;-141.84;84.44;18986.75;5051259;28;20197;-70
2023/01/07 01:04:24;;;;;;;4.33;3.20;;;7.70;99.90;;;-141.84;85.12;18976.59;5051205;28;20205;-69
2023/01/07 01:06:52;;;;;;;3.30;3.00;;;7.60;99.90;;;-141.84;85.61;18990.81;5050985;28;20264;-70
2023/01/07 01:09:24;;;;;;;4.00;3.60;;;7.50;99.90;;;-141.84;86.01;18972.53;5050617;28;20251;-70
2023/01/07 01:11:52;;;;;;;3.30;3.10;;;7.50;99.90;;;-141.84;86.13;18994.88;5031322;28;20236;-70
2023/01/07 01:14:20;;;;;;;3.33;3.03;;;7.40;99.90;;;-141.84;85.83;18986.75;5048872;28;20251;-69
2023/01/07 01:16:48;;;;;;;4.33;3.30;;;7.40;99.90;;;-141.84;85.76;18990.81;5071620;28;20235;-70
2023/01/07 01:19:16;;;;;;;4.20;3.73;;;7.40;99.90;;;-141.84;85.73;18990.81;5072050;28;20676;-71
2023/01/07 01:21:45;;;;;;;3.87;3.40;;;7.40;99.90;;;-141.84;86.56;18958.31;5071010;28;20224;-71
2023/01/07 01:24:13;;;;;;;5.03;3.50;;;7.30;99.90;;;-141.84;86.04;18966.44;5070152;28;20225;-69
2023/01/07 01:26:43;;;;;;;3.37;3.07;;;7.40;99.90;;;-141.84;86.43;18972.53;5070993;28;20236;-69
2023/01/07 01:29:11;;;;;;;3.50;3.20;;;7.30;99.90;;;-141.84;86.82;18925.81;5070890;28;20235;-72
2023/01/07 01:31:39;;;;;;;4.33;3.30;;;7.30;99.90;;;-141.84;87.19;18931.91;5071283;28;20208;-70
2023/01/07 01:34:07;;;;;;;5.63;3.23;;;7.20;99.90;;;-141.84;87.42;18944.09;5038570;28;20291;-69
2023/01/07 01:36:35;;;;;;;3.90;3.60;;;7.10;99.90;;;-141.84;87.92;18940.03;5031498;28;20233;-70
2023/01/07 01:39:04;;;;;;;3.80;3.03;;;7.10;99.90;;;-141.84;88.16;18960.34;5050079;28;20229;-70
2023/01/07 01:41:32;;;;;;;5.20;3.57;;;7.00;99.90;;;-141.84;88.61;18948.16;5050690;28;20225;-71
2023/01/07 01:44:02;;;;;;;3.60;3.30;;;7.00;99.90;;;-141.84;88.98;18907.50;5050536;28;20307;-70
2023/01/07 01:46:38;;;;;;;3.30;3.00;;;7.00;99.90;;;-141.84;88.89;18915.63;5051128;28;20202;-70
2023/01/07 01:49:20;;;;;;;3.40;3.10;;;7.00;99.90;;;-141.84;89.13;18864.84;5051315;28;20247;-69
2023/01/07 01:51:56;;;;;;;3.90;3.23;;;6.90;99.90;;;-141.84;89.45;18917.66;5054044;28;20239;-70
2023/01/07 01:54:27;;;;;;;3.60;2.97;;;6.90;99.90;;;-141.84;89.66;18889.22;5052858;28;20232;-70
2023/01/07 01:57:00;;;;;;;3.73;3.03;;;6.90;99.90;;;-141.84;89.71;18895.31;5053847;28;20220;-70
2023/01/07 01:59:36;;;;;;;3.53;3.23;;;6.90;99.90;;;-141.84;89.53;18913.59;5054125;28;20235;-71
2023/01/07 02:02:06;;;;;;;3.83;3.00;;;6.90;99.90;;;-141.84;89.87;18879.06;5054262;28;20232;-70
2023/01/07 02:04:36;;;;;;;4.07;3.67;;;6.80;99.90;;;-141.84;89.99;18875.00;5054441;28;20601;-69
2023/01/07 02:07:09;;;;;;;3.67;3.23;;;6.80;99.90;;;-141.84;90.36;18909.53;5054098;28;20231;-71
2023/01/07 02:09:37;;;;;;;3.23;2.93;;;6.70;99.90;;;-141.84;90.80;18856.72;5054000;28;20225;-71
2023/01/07 02:12:18;;;;;;;3.67;3.33;;;6.60;99.90;;;-141.84;90.91;18840.47;5073895;28;20235;-70
2023/01/07 02:15:09;;;;;;;3.87;3.50;;;6.60;99.90;;;-141.84;91.29;18854.69;5074239;28;20232;-71
2023/01/07 02:17:55;;;;;;;3.77;3.10;;;6.60;99.90;;;-141.84;91.45;18844.53;5073924;28;20228;-71
2023/01/07 02:20:40;;;;;;;4.10;3.20;;;6.50;99.90;;;-141.84;91.47;18860.78;5073848;28;20220;-70
2023/01/07 02:24:23;;;;;;;5.80;3.43;;;6.50;99.90;;;-141.84;91.96;18850.63;5073316;28;20225;-70
2023/01/07 02:27:16;;;;;;;3.20;2.90;;;6.50;99.90;;;-141.84;92.01;18877.03;4972401;28;20236;-71
2023/01/07 02:30:35;;;;;;;4.70;3.70;;;6.50;99.90;;;-141.84;92.29;18866.88;4972594;28;20248;-70
2023/01/07 02:33:32;;;;;;;3.53;3.23;;;6.50;99.90;;;-141.84;92.37;18844.53;5056625;28;20223;-70
2023/01/07 02:36:40;;;;;;;4.10;3.43;;;6.60;99.90;;;-141.84;92.33;18858.75;5033685;28;20234;-70
2023/01/07 02:39:30;;;;;;;3.50;3.10;;;6.70;99.90;;;-141.84;91.53;18897.34;5032962;28;20725;-71
2023/01/07 02:42:02;;;;;;;3.40;2.63;;;6.80;99.90;;;-141.84;89.85;18907.50;5033577;28;20229;-71
2023/01/07 02:44:41;;;;;;;2.50;2.30;;;7.00;99.90;;;-141.84;88.26;18901.41;5043953;28;20720;-70
2023/01/07 02:47:18;;;;;;;3.60;2.60;;;7.10;99.90;;;-141.84;87.75;18899.38;5053402;28;20240;-70
2023/01/07 02:49:49;;;;;;;3.03;2.73;;;7.20;99.90;;;-141.84;88.24;18917.66;5053323;28;20637;-68
2023/01/07 02:52:23;;;;;;;3.40;2.30;;;7.20;99.90;;;-141.84;88.60;18923.78;5053301;28;20196;-70
2023/01/07 02:54:59;;;;;;;2.60;2.40;;;7.20;99.90;;;-141.84;88.04;18899.38;5052698;28;20232;-70
2023/01/07 02:58:14;;;;;;;2.73;2.53;;;7.20;99.90;;;-141.84;87.76;18927.84;5052932;28;20247;-70
2023/01/07 03:01:37;;;;;;;3.97;2.30;;;7.20;99.90;;;-141.84;86.99;18952.22;5052740;28;20663;-69
2023/01/07 03:04:32;;;;;;;2.50;2.30;;;7.30;99.90;;;-141.84;85.96;18964.41;5052253;28;20224;-70
2023/01/07 03:07:30;;;;;;;3.73;2.80;;;7.40;99.90;;;-141.84;85.79;18970.50;5058221;28;20224;-71
2023/01/07 03:10:10;;;;;;;2.87;2.23;;;7.40;99.90;;;-141.84;85.63;18954.25;5052581;28;20213;-70
2023/01/07 03:12:46;;;;;;;2.47;2.27;;;7.60;99.90;;;-141.84;85.48;18978.63;5052615;28;20221;-70
2023/01/07 03:15:22;;;;;;;3.17;2.20;;;7.60;99.90;;;-141.84;85.23;18974.56;5052714;28;20240;-70
2023/01/07 03:18:00;;;;;;;2.23;2.03;;;7.70;99.90;;;-141.84;85.04;18960.34;5052678;28;20228;-71
2023/01/07 03:20:32;;;;;;;1.97;1.83;;;7.70;99.90;;;-141.84;84.68;18966.44;5052785;28;20243;-70
2023/01/07 03:23:08;;;;;;;2.30;2.10;;;7.70;99.90;;;-141.84;84.16;18984.72;5052149;28;20663;-71
2023/01/07 03:25:44;;;;;;;2.70;2.50;;;7.70;99.90;;;-141.84;83.27;19023.34;5053202;28;20224;-71
2023/01/07 03:28:17;;;;;;;1.93;1.83;;;7.80;99.90;;;-141.84;83.06;19023.34;5052795;28;20209;-72
2023/01/07 03:30:49;;;;;;;2.17;2.00;;;7.80;99.90;;;-141.84;82.88;19025.38;5052587;28;20229;-71
2023/01/07 03:33:26;;;;;;;1.73;1.63;;;7.90;99.90;;;-141.84;82.39;19047.72;5051429;28;20229;-69
2023/01/07 03:35:59;;;;;;;2.27;2.10;;;7.90;99.90;;;-141.84;82.03;19021.31;5051927;28;20711;-70
2023/01/07 03:38:30;;;;;;;2.33;2.10;;;7.90;99.90;;;-141.84;81.57;19041.63;5039424;28;20749;-70
2023/01/07 03:40:59;;;;;;;2.10;1.80;;;7.90;99.90;;;-141.84;82.19;19037.56;5052306;28;20205;-69
2023/01/07 03:43:26;;;;;;;2.00;1.90;;;7.90;99.90;;;-141.84;82.26;19045.69;5052659;28;20208;-71
2023/01/07 03:45:57;;;;;;;2.30;2.10;;;7.80;99.90;;;-141.84;82.61;19033.50;5052308;28;20221;-72
2023/01/07 03:48:25;;;;;;;2.30;1.90;;;7.80;99.90;;;-141.84;83.08;19017.25;5051985;28;20716;-69
2023/01/07 03:50:53;;;;;;;2.60;2.07;;;7.80;99.90;;;-141.84;82.00;19037.56;5052205;28;20225;-70
2023/01/07 03:53:22;;;;;;;2.70;1.97;;;7.80;99.90;;;-141.84;82.46;19021.31;5051513;28;20361;-71
2023/01/07 03:55:51;;;;;;;2.30;2.10;;;7.80;99.90;;;-141.84;82.96;19023.34;5051665;28;20235;-69
2023/01/07 03:58:19;;;;;;;2.63;2.40;;;7.70;99.90;;;-141.84;83.32;18988.78;5052438;28;20197;-70
2023/01/07 04:00:47;;;;;;;1.90;1.80;;;7.70;99.90;;;-141.84;82.60;19011.13;5052134;28;20247;-70
2023/01/07 04:03:16;;;;;;;1.87;1.77;;;7.70;99.90;;;-141.84;82.04;19000.97;5051295;28;20236;-70
2023/01/07 04:05:44;;;;;;;3.30;2.40;;;7.70;99.90;;;-141.84;82.89;19009.09;5051700;28;20229;-70
2023/01/07 04:08:12;;;;;;;2.20;2.00;;;7.70;99.90;;;-141.84;83.41;18992.84;5051249;28;20604;-70
2023/01/07 04:10:40;;;;;;;1.90;1.80;;;7.70;99.90;;;-141.84;83.52;18980.66;5052387;28;20197;-71
2023/01/07 04:13:10;;;;;;;2.40;2.00;;;7.80;99.90;;;-141.84;83.52;19015.19;5051283;28;20221;-71
2023/01/07 04:15:38;;;;;;;2.00;1.80;;;7.70;99.90;;;-141.84;83.70;19029.44;5035364;28;20241;-69
2023/01/07 04:18:06;;;;;;;3.37;1.97;;;7.80;99.90;;;-141.84;83.05;19013.16;5031589;28;20248;-71
2023/01/07 04:20:34;;;;;;;1.90;1.80;;;7.80;99.90;;;-141.84;82.39;19045.69;5031596;28;20595;-70
2023/01/07 04:23:03;;;;;;;1.80;1.70;;;7.90;99.90;;;-141.84;82.39;19039.59;5031291;28;20594;-71
2023/01/07 04:25:31;;;;;;;2.20;2.00;;;7.90;99.90;;;-141.84;81.38;19027.41;5032323;28;20206;-70
2023/01/07 04:27:59;;;;;;;2.13;1.83;;;8.00;99.90;;;-141.84;81.45;19051.78;5031232;28;20222;-71
2023/01/07 04:30:29;;;;;;;1.93;1.70;;;8.10;99.90;;;-141.84;80.69;19076.16;5031509;28;20313;-71
2023/01/07 04:32:57;;;;;;;1.93;1.83;;;8.10;99.90;;;-141.84;79.78;19037.56;5031202;28;20221;-71
2023/01/07 04:35:25;;;;;;;2.20;2.00;;;8.20;99.90;;;-141.84;79.28;19094.44;5031388;28;20226;-70
2023/01/07 04:37:53;;;;;;;1.83;1.73;;;8.40;99.90;;;-141.84;79.72;19086.31;5030938;28;20213;-70
2023/01/07 04:40:21;;;;;;;2.00;1.80;;;8.30;99.90;;;-141.84;79.00;19108.69;5031614;28;20646;-70
2023/01/07 04:42:49;;;;;;;1.93;1.77;;;8.30;99.90;;;-141.84;79.12;19100.53;5031166;28;20234;-69
2023/01/07 04:45:18;;;;;;;2.40;1.70;;;8.30;99.90;;;-141.84;79.98;19106.66;5030949;28;20226;-71
2023/01/07 04:47:47;;;;;;;1.70;1.60;;;8.30;99.90;;;-141.84;78.71;19118.84;5031151;28;20229;-70
2023/01/07 04:50:16;;;;;;;2.00;1.80;;;8.30;99.90;;;-141.84;78.93;19110.72;5031406;28;20229;-72
2023/01/07 04:52:44;;;;;;;1.60;1.50;;;8.40;99.90;;;-141.84;79.45;19096.47;5030246;28;20217;-70
2023/01/07 04:55:12;;;;;;;1.80;1.70;;;8.30;99.90;;;-141.84;79.66;19108.69;5031107;28;20253;-70
2023/01/07 04:57:40;;;;;;;1.60;1.50;;;8.30;99.90;;;-141.84;79.26;19120.88;5014719;28;20632;-70
2023/01/07 05:00:11;;;;;;;2.90;2.60;;;8.30;99.90;;;-141.84;79.56;19092.41;5007832;28;20340;-70
2023/01/07 05:02:39;;;;;;;1.67;1.57;;;8.30;99.90;;;-141.84;79.01;19106.66;5011240;28;20222;-71
2023/01/07 05:05:10;;;;;;;2.00;1.80;;;8.30;99.90;;;-141.84;78.50;19110.72;5011235;28;20313;-71
2023/01/07 05:07:38;;;;;;;1.90;1.70;;;8.40;99.90;;;-141.84;78.06;19151.34;5020549;28;20205;-70
2023/01/07 05:10:07;;;;;;;1.90;1.70;;;8.40;99.90;;;-141.84;78.54;19098.50;5031097;28;20741;-70
2023/01/07 05:12:37;;;;;;;1.80;1.70;;;8.40;99.90;;;-141.84;77.82;19135.09;5030787;28;20233;-70
2023/01/07 05:15:07;;;;;;;1.50;1.40;;;8.50;99.90;;;-141.84;76.73;19139.16;5030976;28;20226;-70
2023/01/07 05:17:35;;;;;;;1.90;1.60;;;8.50;99.90;;;-141.84;78.13;19116.81;5031061;28;20221;-71
2023/01/07 05:20:06;;;;;;;2.07;1.80;;;8.50;99.90;;;-141.84;78.40;19120.88;5030979;28;20222;-70
2023/01/07 05:22:36;;;;;;;1.87;1.67;;;8.50;99.90;;;-141.84;78.80;19094.44;5031149;28;20187;-70
2023/01/07 05:25:05;;;;;;;2.17;1.47;;;8.50;99.90;;;-141.84;78.90;19108.69;5034694;28;20233;-70
2023/01/07 05:27:33;;;;;;;1.90;1.77;;;8.40;99.90;;;-141.84;78.92;19118.84;5034699;28;20571;-69
2023/01/07 05:30:01;;;;;;;1.73;1.63;;;8.40;99.90;;;-141.84;78.98;19090.38;5034685;28;20222;-70
2023/01/07 05:32:29;;;;;;;1.97;1.67;;;8.40;99.90;;;-141.84;79.21;19108.69;5034404;28;20234;-71
2023/01/07 05:34:57;;;;;;;1.53;1.43;;;8.40;99.90;;;-141.84;79.10;19094.44;5034413;28;20824;-70
2023/01/07 05:37:25;;;;;;;1.93;1.80;;;8.40;99.90;;;-141.84;79.21;19129.00;5034869;28;20693;-70
2023/01/07 05:39:55;;;;;;;1.60;1.50;;;8.40;99.90;;;-141.84;78.64;19131.03;5034529;28;20307;-68
2023/01/07 05:42:23;;;;;;;1.50;1.40;;;8.50;99.90;;;-141.84;79.32;19108.69;5034724;28;20236;-69
2023/01/07 05:44:51;;;;;;;1.60;1.50;;;8.50;99.90;;;-141.84;78.37;19145.25;5034226;28;20671;-71
2023/01/07 05:47:19;;;;;;;1.70;1.60;;;8.50;99.90;;;-141.84;78.11;19122.91;5034775;28;20248;-70
2023/01/07 05:49:48;;;;;;;1.63;1.30;;;8.50;99.90;;;-141.84;78.18;19135.09;5034559;28;20224;-71
2023/01/07 05:52:16;;;;;;;1.60;1.40;;;8.50;99.90;;;-141.84;78.16;19122.91;5034755;28;20210;-70
2023/01/07 05:54:44;;;;;;;1.57;1.47;;;8.60;99.90;;;-141.84;78.34;19120.88;5044439;28;20233;-71
2023/01/07 05:57:13;;;;;;;1.50;1.40;;;8.60;99.90;;;-141.84;78.05;19157.44;5054516;28;20236;-70
2023/01/07 05:59:43;;;;;;;1.70;1.60;;;8.60;99.90;;;-141.84;77.90;19149.31;5055432;28;20249;-70
2023/01/07 06:02:11;;;;;;;1.70;1.60;;;8.60;99.90;;;-141.84;77.33;19151.34;5054214;28;20234;-69
2023/01/07 06:04:39;;;;;;;1.83;1.73;;;8.70;99.90;;;-141.84;78.05;19155.41;5036950;28;20198;-69
2023/01/07 06:07:07;;;;;;;1.70;1.60;;;8.60;99.90;;;-141.84;77.49;19143.22;5020581;28;20226;-71
2023/01/07 06:09:35;;;;;;;1.50;1.40;;;8.60;99.90;;;-141.84;78.87;19102.56;5034000;28;20225;-70
2023/01/07 06:12:04;;;;;;;2.00;1.43;;;8.60;99.90;;;-141.84;78.21;19151.34;5033794;28;20698;-70
2023/01/07 06:14:33;;;;;;;1.87;1.33;;;8.60;99.90;;;-141.84;78.39;19139.16;5033992;28;20237;-70
2023/01/07 06:17:01;;;;;;;3.17;1.60;;;8.50;99.90;;;-141.84;78.16;19133.06;5033681;28;20238;-70
2023/01/07 06:19:29;;;;;;;1.70;1.50;;;8.50;99.90;;;-141.84;78.90;19102.56;5034386;28;20301;-71
2023/01/07 06:21:58;;;;;;;1.60;1.50;;;8.50;99.90;;;-141.84;78.49;19143.22;5033524;28;20229;-70
2023/01/07 06:24:26;;;;;;;1.67;1.57;;;8.50;99.90;;;-141.84;79.35;19074.13;5034021;28;20226;-71
2023/01/07 06:26:54;;;;;;;2.17;1.60;;;8.40;99.90;;;-141.84;79.96;19102.56;5033621;28;20233;-69
2023/01/07 06:29:22;;;;;;;1.63;1.50;;;8.30;99.90;;;-141.84;79.82;19092.41;5033701;28;20222;-71
2023/01/07 06:31:52;;;;;;;2.33;1.80;;;8.30;99.90;;;-141.84;80.65;19082.25;5033768;28;20205;-70
2023/01/07 06:34:20;;;;;;;1.70;1.60;;;8.20;99.90;;;-141.84;80.83;19066.00;5033541;28;20214;-70
2023/01/07 06:36:48;;;;;;;1.90;1.80;;;8.10;99.90;;;-141.84;81.45;19078.19;5032653;28;20226;-69
2023/01/07 06:39:16;;;;;;;1.60;1.50;;;8.10;99.90;;;-141.84;81.47;19076.16;5033303;28;20717;-69
2023/01/07 06:41:44;;;;;;;1.73;1.63;;;8.00;99.90;;;-141.84;80.27;19078.19;5033568;28;20248;-69
2023/01/07 06:44:13;;;;;;;1.43;1.33;;;8.00;99.90;;;-141.84;80.25;19094.44;5033143;28;20642;-72
2023/01/07 06:46:41;;;;;;;1.70;1.60;;;8.00;99.90;;;-141.84;80.94;19066.00;5033260;28;20535;-69
2023/01/07 06:49:11;;;;;;;1.60;1.43;;;8.00;99.90;;;-141.84;81.16;19068.03;5034006;28;20210;-70
2023/01/07 06:51:39;;;;;;;1.60;1.50;;;8.00;99.90;;;-141.84;81.46;19051.78;5033251;28;20222;-69
2023/01/07 06:54:07;;;;;;;1.90;1.50;;;7.90;99.90;;;-141.84;81.34;19047.72;5031234;28;20296;-69
2023/01/07 06:56:35;;;;;;;1.50;1.40;;;7.90;99.90;;;-141.84;81.48;19047.72;5006053;28;20258;-70
2023/01/07 06:59:03;;;;;;;1.50;1.40;;;7.90;99.90;;;-141.84;81.89;19023.34;4997120;28;20227;-69
2023/01/07 07:01:31;;;;;;;1.50;1.40;;;7.80;99.90;;;-141.84;82.10;19066.00;5014112;28;20549;-71
2023/01/07 07:04:00;;;;;;;1.77;1.67;;;7.80;99.90;;;-141.84;81.98;19041.63;5009017;28;20233;-71
2023/01/07 07:06:29;;;;;;;1.30;1.20;;;7.80;99.90;;;-141.84;81.94;19061.94;5027486;28;20725;-71
2023/01/07 07:08:57;;;;;;;1.70;1.60;;;7.80;99.90;;;-141.84;82.65;19043.66;5002905;28;20238;-70
2023/01/07 07:11:25;;;;;;;1.50;1.40;;;7.70;99.90;;;-141.84;82.25;19041.63;5009657;28;20234;-61
2023/01/07 07:13:54;;;;;;;1.43;1.33;;;7.80;99.90;;;-141.84;82.17;19037.56;5013283;28;20198;-59
2023/01/07 07:16:22;;;;;;;2.00;1.50;;;7.80;99.90;;;-141.84;82.00;19041.63;5013218;28;20663;-60
2023/01/07 07:18:51;;;;;;;1.43;1.33;;;7.70;99.90;;;-141.84;82.33;19015.19;5012770;28;20285;-60
2023/01/07 07:21:20;;;;;;;1.40;1.30;;;7.70;99.90;;;-141.84;82.73;19045.69;5012390;28;20235;-58
2023/01/07 07:23:49;;;;;;;1.70;1.60;;;7.70;99.90;;;-141.84;82.87;19023.34;5012678;28;20234;-61
2023/01/07 07:26:17;;;;;;;1.73;1.50;;;7.70;99.90;;;-141.84;81.78;19043.66;5012707;28;20233;-59
2023/01/07 07:28:46;;;;;;;2.10;1.50;;;7.70;99.90;;;-141.84;81.89;19019.28;5012998;28;20666;-60
2023/01/07 07:31:14;;;;;;;1.63;1.53;;;7.70;99.90;;;-141.84;82.20;19007.06;5013628;28;20209;-59
2023/01/07 07:33:42;;;;;;;1.50;1.40;;;7.70;99.90;;;-141.84;81.47;19049.75;5000163;28;20227;-60
2023/01/07 07:36:10;;;;;;;1.53;1.43;;;7.80;99.90;;;-141.84;81.41;19015.19;5002270;28;20233;-60
2023/01/07 07:38:38;;;;;;;1.70;1.60;;;7.80;99.90;;;-141.84;81.49;19037.56;5020264;28;20234;-60
2023/01/07 07:41:08;;;;;;;1.60;1.50;;;7.80;99.90;;;-141.84;81.11;19057.88;5028043;28;20241;-60
2023/01/07 07:43:36;;;;;;;1.77;1.67;;;7.80;99.90;;;-141.84;80.81;19029.44;5010507;28;20207;-59
2023/01/07 07:46:05;;;;;;;3.07;1.97;;;7.80;99.90;;;-141.84;81.31;19057.88;5032112;28;20249;-60
2023/01/07 07:48:33;;;;;;;1.70;1.60;;;7.80;99.90;;;-141.84;81.62;19049.75;5016000;28;20226;-60
2023/01/07 07:51:01;;;;;;;1.93;1.80;;;7.80;99.90;;;-141.84;81.68;19045.69;5023695;28;20229;-59
2023/01/07 07:53:30;;;;;;;1.90;1.63;;;7.80;99.90;;;-141.84;80.77;19082.25;5031915;28;20226;-61
2023/01/07 07:55:58;;;;;;;1.90;1.80;;;7.90;99.90;;;-141.84;80.78;19078.19;5031997;28;20191;-61
2023/01/07 07:58:27;;;;;;;2.00;1.80;;;8.00;99.90;;;-141.84;78.57;19104.59;5032615;28;20232;-60
2023/01/07 08:00:55;;;;;;;1.70;1.60;;;8.10;99.90;;;-141.84;78.87;19108.69;5032140;28;20229;-60
2023/01/07 08:03:24;;;;;;;2.37;1.70;;;8.20;99.90;;;-141.84;78.74;19094.44;5031525;28;20233;-59
2023/01/07 08:05:52;;;;;;;1.80;1.70;;;8.20;99.90;;;-141.84;78.79;19102.56;5031822;28;20230;-60
2023/01/07 08:08:21;;;;;;;1.70;1.57;;;8.20;99.90;;;-141.84;79.10;19092.41;5031685;28;20599;-60
2023/01/07 08:10:49;;;;;;;1.53;1.43;;;8.20;99.90;;;-141.84;79.17;19078.19;5031971;28;20209;-59
2023/01/07 08:13:18;;;;;;;1.77;1.67;;;8.20;99.90;;;-141.84;79.61;19106.66;5032365;28;20209;-59
2023/01/07 08:15:47;;;;;;;1.47;1.37;;;8.20;99.90;;;-141.84;79.35;19072.09;5032026;28;20233;-60
2023/01/07 08:18:15;;;;;;;1.50;1.40;;;8.20;99.90;;;-141.84;79.29;19114.78;5031518;28;20325;-60
2023/01/07 08:20:43;;;;;;;1.50;1.40;;;8.20;99.90;;;-141.84;78.91;19102.56;5031661;28;20241;-60
2023/01/07 08:23:12;;;;;;;1.60;1.30;;;8.20;99.90;;;-141.84;78.45;19104.59;5031695;28;20233;-61
2023/01/07 08:25:40;;;;;;;1.40;1.30;;;8.30;99.90;;;-141.84;78.84;19070.06;5032228;28;20209;-60
2023/01/07 08:28:10;;;;;;;1.43;1.27;;;8.30;99.90;;;-141.84;79.28;19090.38;5031692;28;20670;-61
2023/01/07 08:30:38;;;;;;;1.67;1.57;;;8.30;99.90;;;-141.84;78.63;19112.75;5031334;28;20276;-61
2023/01/07 08:33:08;;;;;;;2.17;1.60;;;8.30;99.90;;;-141.84;78.31;19072.09;5031645;28;20226;-60
2023/01/07 08:35:36;;;;;;;2.50;1.60;;;8.30;99.90;;;-141.84;78.01;19120.88;5031353;28;20233;-62
2023/01/07 08:38:07;;;;;;;1.77;1.50;;;8.30;99.90;;;-141.84;77.60;19139.16;5031169;28;20245;-60
2023/01/07 08:40:37;;;;;;;2.70;1.57;;;8.40;99.90;;;-141.84;77.59;19118.84;5032261;28;20199;-59
2023/01/07 08:43:07;;;;;;;1.43;1.33;;;8.40;99.90;;;-141.84;77.08;19151.34;5031088;28;20602;-60
2023/01/07 08:45:36;;;;;;;2.07;1.63;;;8.50;99.90;;;-141.84;77.21;19118.84;5050127;28;20674;-62
2023/01/07 08:48:05;;;;;;;2.77;1.77;;;8.50;99.90;;;-141.84;77.74;19124.94;5050672;28;20984;-60
2023/01/07 08:50:35;;;;;;;2.93;1.50;;;8.50;99.90;;;-141.84;77.23;19126.97;5051050;28;20233;-62
2023/01/07 08:53:03;;;;;;;1.67;1.37;;;8.60;99.90;;;-141.84;77.01;19183.84;5051061;28;20225;-71
2023/01/07 08:55:31;;;;;;;2.50;1.63;;;8.70;99.90;;;-141.84;76.07;19171.66;5054398;28;20234;-71
2023/01/07 08:57:59;;;;;;;1.83;1.70;;;8.70;99.90;;;-141.84;75.96;19175.72;5050443;28;20236;-68
2023/01/07 09:00:28;;;;;;;1.93;1.50;;;8.80;99.90;;;-141.84;75.19;19187.91;5051124;28;20229;-70
2023/01/07 09:02:56;;;;;;;1.60;1.50;;;8.90;99.90;;;-141.84;74.61;19185.88;5044002;28;20321;-70
2023/01/07 09:05:24;;;;;;;1.77;1.60;;;9.00;99.90;;;-141.84;74.05;19265.13;5031039;28;20221;-70
2023/01/07 09:07:55;;;;;;;2.17;1.70;;;9.10;99.90;;;-141.84;73.99;19244.81;5042221;28;20202;-71
2023/01/07 09:10:24;;;;;;;1.60;1.50;;;9.10;99.90;;;-141.84;73.52;19236.69;5051142;28;20200;-70
2023/01/07 09:12:52;;;;;;;2.27;1.50;;;9.20;99.90;;;-141.84;73.68;19265.13;5050656;28;20604;-70
2023/01/07 09:15:20;;;;;;;2.60;1.67;;;9.30;99.90;;;-141.84;73.55;19246.84;5050541;28;20668;-69
2023/01/07 09:17:48;;;;;;;1.57;1.37;;;9.30;99.90;;;-141.84;73.15;19216.38;5050357;28;20226;-70
2023/01/07 09:20:17;;;;;;;1.77;1.63;;;9.40;99.90;;;-141.84;73.53;19265.13;5050844;28;20233;-70
2023/01/07 09:22:45;;;;;;;1.37;1.27;;;9.40;99.90;;;-141.84;72.74;19287.50;5050563;28;20209;-71
2023/01/07 09:25:15;;;;;;;1.57;1.03;;;9.50;99.90;;;-141.84;71.84;19285.47;5044630;28;20205;-71
2023/01/07 09:27:44;;;;;;;1.30;1.20;;;9.60;99.90;;;-141.84;70.62;19320.00;5045764;28;20581;-70
2023/01/07 09:30:13;;;;;;;1.60;1.17;;;9.70;99.90;;;-141.84;71.62;19287.50;5049847;28;20243;-71
2023/01/07 09:32:43;;;;;;;1.17;1.10;;;9.70;99.90;;;-141.84;71.80;19281.41;5049165;28;20233;-69
2023/01/07 09:35:11;;;;;;;1.37;1.27;;;9.70;99.90;;;-141.84;72.18;19303.75;5050791;28;20227;-70
2023/01/07 09:37:40;;;;;;;1.33;1.23;;;9.70;99.90;;;-141.84;71.64;19283.44;5044489;28;20591;-70
2023/01/07 09:40:21;;;;;;;1.47;1.30;;;9.70;99.90;;;-141.84;71.60;19289.53;5050089;28;20224;-70
2023/01/07 09:42:59;;;;;;;1.50;1.40;;;9.70;99.90;;;-141.84;71.91;19301.72;5031034;28;20317;-70
2023/01/07 09:45:32;;;;;;;1.60;1.50;;;9.70;99.90;;;-141.84;71.38;19342.34;5046856;28;20225;-70
2023/01/07 09:48:06;;;;;;;1.73;1.40;;;9.70;99.90;;;-141.84;71.56;19309.84;5030189;28;20237;-70
2023/01/07 09:50:52;;;;;;;1.33;1.23;;;9.70;99.90;;;-141.84;70.78;19330.16;5037566;28;20213;-69
2023/01/07 09:53:27;;;;;;;1.53;1.30;;;9.80;99.90;;;-141.84;70.29;19391.13;5048859;28;20568;-70
2023/01/07 09:55:57;;;;;;;1.20;0.80;;;9.90;99.90;;;-141.84;70.12;19332.19;5050413;28;20217;-69
2023/01/07 09:58:45;;;;;;;1.83;1.33;;;10.00;99.90;;;-141.84;69.34;19429.75;5038374;28;20213;-69
2023/01/07 10:01:26;;;;;;;1.30;1.10;;;10.10;99.90;;;-141.84;69.72;19391.13;5049124;28;20221;-70
2023/01/07 10:04:15;;;;;;;1.10;1.00;;;10.20;99.90;;;-141.84;68.57;19380.97;5043278;28;20256;-70
2023/01/07 10:06:56;;;;;;;1.27;1.10;;;10.20;99.90;;;-141.84;68.94;19429.75;5047444;28;20606;-70
2023/01/07 10:09:43;;;;;;;1.30;1.20;;;10.30;99.90;;;-141.84;68.94;19411.44;5040393;28;20222;-71
2023/01/07 10:12:26;;;;;;;1.83;1.10;;;10.30;99.90;;;-141.84;69.04;19456.16;5047565;28;20228;-69
2023/01/07 10:15:35;;;;;;;1.10;1.00;;;10.30;99.90;;;-141.84;68.17;19433.81;5053045;28;20308;-71
2023/01/07 10:18:24;;;;;;;1.23;1.13;;;10.40;99.90;;;-141.84;67.59;19448.03;4998355;28;20288;-69
2023/01/07 10:21:09;;;;;;;1.10;1.00;;;10.40;99.90;;;-141.84;67.31;19456.16;5040067;28;20717;-70
2023/01/07 10:23:42;;;;;;;1.20;1.10;;;10.50;99.90;;;-141.84;67.31;19460.22;5033461;28;20312;-69
2023/01/07 10:26:28;;;;;;;1.10;1.00;;;10.50;99.90;;;-141.84;68.48;19462.25;5037024;28;20229;-70
2023/01/07 10:29:06;;;;;;;1.50;1.10;;;10.40;99.90;;;-141.84;68.05;19429.75;5052252;28;20190;-70
2023/01/07 10:31:36;;;;;;;1.00;0.90;;;10.40;99.90;;;-141.84;68.50;19470.38;5054020;28;20186;-70
2023/01/07 10:34:14;;;;;;;1.20;1.10;;;10.40;99.90;;;-141.84;67.92;19423.66;5049363;28;20564;-69